Time;durP1;ratioP1;P1;durP2;ratioP2;P2;SDS_P1;SDS_P2;PMS_P1;PMS_P2;Temp;Humidity;BMP_temperature;BMP_pressure;BME280_temperature;BME280_humidity;BME280_pressure;Samples;Min_cycle;Max_cycle;Signal;HPM_P1;HPM_P2
2022/10/10 00:00:52;;;;;;;8.80;3.30;;;12.80;99.90;;;;;;5074030;28;20047;-72
2022/10/10 00:03:18;;;;;;;7.13;3.30;;;12.60;99.90;;;;;;5073949;28;20083;-71
2022/10/10 00:05:45;;;;;;;8.45;4.53;;;12.60;99.90;;;;;;5073792;28;20029;-72
2022/10/10 00:08:11;;;;;;;7.13;4.10;;;12.70;99.90;;;;;;5072817;28;20521;-70
2022/10/10 00:10:37;;;;;;;6.65;4.35;;;12.70;99.90;;;;;;5072560;28;20040;-69
2022/10/10 00:13:04;;;;;;;9.10;3.67;;;12.70;99.90;;;;;;5072663;28;20542;-69
2022/10/10 00:15:30;;;;;;;9.02;3.92;;;12.60;99.90;;;;;;5073686;28;20040;-69
2022/10/10 00:17:56;;;;;;;5.47;3.20;;;12.60;99.90;;;;;;5072389;28;20086;-69
2022/10/10 00:20:21;;;;;;;5.70;2.85;;;12.70;99.90;;;;;;5072899;28;20439;-69
2022/10/10 00:22:47;;;;;;;7.25;4.13;;;12.60;99.90;;;;;;5073757;28;20828;-70
2022/10/10 00:25:13;;;;;;;7.40;2.80;;;12.30;99.90;;;;;;5073924;28;20029;-72
2022/10/10 00:27:39;;;;;;;5.80;3.72;;;12.30;99.90;;;;;;5073832;28;20048;-70
2022/10/10 00:30:07;;;;;;;10.77;4.03;;;12.30;99.90;;;;;;5073839;28;20387;-70
2022/10/10 00:32:34;;;;;;;10.38;4.00;;;12.40;99.90;;;;;;5073488;28;20039;-70
2022/10/10 00:35:00;;;;;;;7.90;3.13;;;12.40;99.90;;;;;;5073574;28;20041;-70
2022/10/10 00:37:26;;;;;;;5.80;3.67;;;12.40;99.90;;;;;;5073366;28;20040;-70
2022/10/10 00:39:51;;;;;;;7.70;3.80;;;12.40;99.90;;;;;;5073542;28;20045;-70
2022/10/10 00:42:19;;;;;;;6.88;3.42;;;12.40;99.90;;;;;;5073464;28;20507;-70
2022/10/10 00:45:06;;;;;;;5.95;3.03;;;12.40;99.90;;;;;;5073514;28;20040;-70
2022/10/10 00:47:32;;;;;;;6.25;3.10;;;12.30;99.90;;;;;;5071905;28;20036;-69
2022/10/10 00:49:58;;;;;;;6.40;3.17;;;12.50;99.90;;;;;;5073594;28;20039;-72
2022/10/10 00:52:24;;;;;;;10.02;3.17;;;12.60;99.90;;;;;;5073502;28;20036;-69
2022/10/10 00:54:50;;;;;;;6.97;3.42;;;12.60;99.90;;;;;;5073548;28;20381;-69
2022/10/10 00:57:16;;;;;;;5.70;2.85;;;12.50;99.90;;;;;;5073546;28;20048;-73
2022/10/10 00:59:44;;;;;;;9.57;2.85;;;12.50;99.90;;;;;;5072262;28;20139;-71
2022/10/10 01:02:10;;;;;;;3.60;2.55;;;12.40;99.90;;;;;;5075065;28;20127;-69
2022/10/10 01:04:41;;;;;;;6.60;2.42;;;12.30;99.90;;;;;;5077110;28;20059;-69
2022/10/10 01:07:14;;;;;;;6.38;2.65;;;12.40;99.90;;;;;;5077043;28;20404;-73
2022/10/10 01:09:42;;;;;;;6.75;2.75;;;12.40;99.90;;;;;;5075723;28;20032;-70
2022/10/10 01:12:31;;;;;;;4.95;2.85;;;12.30;99.90;;;;;;5076908;28;20514;-70
2022/10/10 01:15:22;;;;;;;8.15;2.92;;;12.30;99.90;;;;;;5077061;28;20127;-73
2022/10/10 01:18:09;;;;;;;6.35;3.30;;;12.30;99.90;;;;;;5077025;28;20044;-69
2022/10/10 01:21:00;;;;;;;5.63;3.20;;;12.30;99.90;;;;;;5076880;28;20080;-70
2022/10/10 01:23:44;;;;;;;;;;;12.30;99.90;;;;;;5077390;28;20029;-69
2022/10/10 01:26:10;;;;;;;5.88;3.17;;;12.20;99.90;;;;;;5075703;28;19934;-69
2022/10/10 01:28:44;;;;;;;9.55;2.97;;;12.10;99.90;;;;;;5076990;28;20440;-69
2022/10/10 01:31:13;;;;;;;3.72;2.50;;;12.00;99.90;;;;;;5076928;28;20043;-70
2022/10/10 01:34:01;;;;;;;12.20;2.60;;;12.00;99.90;;;;;;5076147;28;20576;-70
2022/10/10 01:36:44;;;;;;;7.72;2.78;;;12.00;99.90;;;;;;5076499;28;20526;-70
2022/10/10 01:39:17;;;;;;;4.60;2.22;;;11.90;99.90;;;;;;5075478;28;20101;-70
2022/10/10 01:41:54;;;;;;;9.57;2.72;;;11.80;99.90;;;;;;5075101;28;20040;-71
2022/10/10 01:44:21;;;;;;;4.13;2.40;;;11.90;99.90;;;;;;5075105;28;20032;-72
2022/10/10 01:46:47;;;;;;;7.57;2.60;;;12.10;99.90;;;;;;5076581;28;20277;-70
2022/10/10 01:49:13;;;;;;;3.80;2.35;;;12.20;99.90;;;;;;5076433;28;20512;-72
2022/10/10 01:51:41;;;;;;;4.97;2.63;;;12.30;99.90;;;;;;5076323;28;20181;-71
2022/10/10 01:54:29;;;;;;;6.53;2.58;;;12.40;99.90;;;;;;5075497;28;20044;-70
2022/10/10 01:57:24;;;;;;;5.85;2.28;;;12.30;99.90;;;;;;5076442;28;20036;-70
2022/10/10 02:00:09;;;;;;;7.78;2.97;;;12.50;99.90;;;;;;5076379;28;20150;-70
2022/10/10 02:02:46;;;;;;;7.32;2.38;;;12.40;99.90;;;;;;5075915;28;20561;-70
2022/10/10 02:05:27;;;;;;;4.43;2.15;;;12.40;99.90;;;;;;5076084;28;20043;-71
2022/10/10 02:07:59;;;;;;;4.60;2.45;;;12.40;99.90;;;;;;5075382;28;20519;-70
2022/10/10 02:10:29;;;;;;;6.85;3.20;;;12.40;99.90;;;;;;5056022;28;20124;-69
2022/10/10 02:12:56;;;;;;;;;;;12.50;99.90;;;;;;5053973;28;20489;-70
2022/10/10 02:15:24;;;;;;;6.55;3.08;;;12.60;99.90;;;;;;5055659;28;19962;-71
2022/10/10 02:17:51;;;;;;;8.82;2.92;;;12.70;99.90;;;;;;5055767;28;20127;-70
2022/10/10 02:20:21;;;;;;;5.28;2.40;;;12.70;99.90;;;;;;5054496;28;20500;-70
2022/10/10 02:22:50;;;;;;;11.95;3.60;;;12.50;99.90;;;;;;5054684;28;20037;-69
2022/10/10 02:25:16;;;;;;;8.02;2.95;;;12.20;99.90;;;;;;5055937;28;20124;-72
2022/10/10 02:27:50;;;;;;;6.90;2.30;;;12.20;99.90;;;;;;5055701;28;20064;-72
2022/10/10 02:30:17;;;;;;;6.97;2.90;;;11.60;99.90;;;;;;5055703;28;20035;-70
2022/10/10 02:32:48;;;;;;;5.13;2.42;;;11.60;99.90;;;;;;5054326;28;20037;-72
2022/10/10 02:35:25;;;;;;;;;;;11.60;99.90;;;;;;5056066;28;20036;-72
2022/10/10 02:37:53;;;;;;;4.57;2.13;;;11.60;99.90;;;;;;5055406;28;19913;-70
2022/10/10 02:40:25;;;;;;;4.03;1.98;;;11.80;99.90;;;;;;5053857;28;20404;-70
2022/10/10 02:42:52;;;;;;;7.85;2.40;;;12.00;99.90;;;;;;5055237;28;20056;-70
2022/10/10 02:45:19;;;;;;;3.80;2.08;;;12.30;99.90;;;;;;5055236;28;20047;-70
2022/10/10 02:47:45;;;;;;;5.20;2.28;;;12.40;99.90;;;;;;5055201;28;20045;-72
2022/10/10 02:50:11;;;;;;;5.65;2.45;;;12.40;99.90;;;;;;5055107;28;20036;-72
2022/10/10 02:52:37;;;;;;;4.72;1.80;;;12.40;99.90;;;;;;5053643;28;20149;-71
2022/10/10 02:55:03;;;;;;;6.82;2.08;;;12.50;99.90;;;;;;5053754;28;20079;-71
2022/10/10 02:57:29;;;;;;;3.75;2.03;;;12.60;99.90;;;;;;5056786;28;20403;-71
2022/10/10 02:59:55;;;;;;;8.27;1.95;;;12.50;99.90;;;;;;5063593;28;20041;-71
2022/10/10 03:02:20;;;;;;;6.80;2.08;;;12.70;99.90;;;;;;5053726;28;20081;-70
2022/10/10 03:04:46;;;;;;;3.67;1.67;;;12.70;99.90;;;;;;5053686;28;20484;-72
2022/10/10 03:07:12;;;;;;;4.72;1.90;;;12.60;99.90;;;;;;5054959;28;20040;-70
2022/10/10 03:09:37;;;;;;;6.20;1.92;;;12.90;99.90;;;;;;5054957;28;20049;-70
2022/10/10 03:12:04;;;;;;;6.03;2.40;;;12.90;99.90;;;;;;5053420;28;20127;-70
2022/10/10 03:14:29;;;;;;;6.43;2.08;;;12.90;99.90;;;;;;5054656;28;20125;-70
2022/10/10 03:16:55;;;;;;;3.78;1.90;;;12.90;99.90;;;;;;5053483;28;20065;-70
2022/10/10 03:19:21;;;;;;;6.60;2.20;;;12.80;99.90;;;;;;5054640;28;20040;-70
2022/10/10 03:21:47;;;;;;;4.22;2.05;;;12.70;99.90;;;;;;5054463;28;20060;-70
2022/10/10 03:24:14;;;;;;;7.53;2.03;;;12.50;99.90;;;;;;5054313;28;20065;-70
2022/10/10 03:26:39;;;;;;;10.02;2.05;;;12.30;99.90;;;;;;5054762;28;20467;-70
2022/10/10 03:29:05;;;;;;;3.65;1.50;;;12.60;99.90;;;;;;5054725;28;20175;-70
2022/10/10 03:31:31;;;;;;;7.07;2.00;;;12.50;99.90;;;;;;5053167;28;20087;-70
2022/10/10 03:33:57;;;;;;;3.03;1.65;;;12.70;99.90;;;;;;5054501;28;20128;-71
2022/10/10 03:36:23;;;;;;;5.40;1.90;;;12.60;99.90;;;;;;5054261;28;20520;-70
2022/10/10 03:38:49;;;;;;;5.57;1.83;;;12.70;99.90;;;;;;5053087;28;20194;-70
2022/10/10 03:41:14;;;;;;;7.82;2.05;;;12.60;99.90;;;;;;5054306;28;20048;-71
2022/10/10 03:43:40;;;;;;;3.25;1.77;;;12.90;99.90;;;;;;5054289;28;20037;-70
2022/10/10 03:46:06;;;;;;;4.45;1.85;;;13.10;99.90;;;;;;5054347;28;20036;-70
2022/10/10 03:48:32;;;;;;;4.68;1.63;;;13.10;99.90;;;;;;5055458;28;20039;-70
2022/10/10 03:50:57;;;;;;;7.05;1.60;;;13.20;99.90;;;;;;5073818;28;20500;-69
2022/10/10 03:53:23;;;;;;;4.40;1.80;;;13.10;99.90;;;;;;5074189;28;20048;-70
2022/10/10 03:55:49;;;;;;;5.13;1.55;;;13.10;99.90;;;;;;5073989;28;20059;-70
2022/10/10 03:58:15;;;;;;;3.25;1.88;;;13.10;99.90;;;;;;5072631;28;20040;-71
2022/10/10 04:00:41;;;;;;;3.05;1.67;;;13.10;99.90;;;;;;5072610;28;20036;-70
2022/10/10 04:03:07;;;;;;;3.30;1.65;;;13.00;99.90;;;;;;5074115;28;20052;-69
2022/10/10 04:05:37;;;;;;;4.60;2.05;;;13.00;99.90;;;;;;5073901;28;20048;-70
2022/10/10 04:08:04;;;;;;;;;;;13.00;99.90;;;;;;5074357;28;20523;-71
2022/10/10 04:10:31;;;;;;;4.38;1.58;;;13.00;99.90;;;;;;5073645;28;20249;-70
2022/10/10 04:12:57;;;;;;;5.20;1.50;;;12.90;99.90;;;;;;5072775;28;20048;-70
2022/10/10 04:15:24;;;;;;;6.80;2.10;;;13.00;99.90;;;;;;5073778;28;20099;-71
2022/10/10 04:17:50;;;;;;;4.88;1.52;;;12.90;99.90;;;;;;5073860;28;20036;-70
2022/10/10 04:20:17;;;;;;;4.90;2.10;;;12.80;99.90;;;;;;5073602;28;20041;-70
2022/10/10 04:22:43;;;;;;;8.55;1.65;;;12.90;99.90;;;;;;5073760;28;20098;-70
2022/10/10 04:25:10;;;;;;;3.28;1.65;;;13.00;99.90;;;;;;5073838;28;20039;-70
2022/10/10 04:27:36;;;;;;;4.22;1.77;;;12.80;99.90;;;;;;5073545;28;20037;-70
2022/10/10 04:30:02;;;;;;;5.00;1.65;;;12.70;99.90;;;;;;5073765;28;20043;-71
2022/10/10 04:32:28;;;;;;;2.97;1.50;;;12.60;99.90;;;;;;5073086;28;20048;-71
2022/10/10 04:34:58;;;;;;;5.50;2.08;;;12.70;99.90;;;;;;5073733;28;20052;-70
2022/10/10 04:37:23;;;;;;;6.85;2.42;;;12.90;99.90;;;;;;5075730;28;20201;-70
2022/10/10 04:39:49;;;;;;;4.97;1.80;;;13.00;99.90;;;;;;5076348;28;20127;-71
2022/10/10 04:42:15;;;;;;;3.63;1.55;;;13.00;99.90;;;;;;5077398;28;20129;-70
2022/10/10 04:44:41;;;;;;;9.32;2.15;;;13.10;99.90;;;;;;5076701;28;20181;-70
2022/10/10 04:47:06;;;;;;;6.28;1.70;;;13.10;99.90;;;;;;5086087;28;20078;-71
2022/10/10 04:49:32;;;;;;;4.40;1.50;;;13.10;99.90;;;;;;5083399;28;20052;-70
2022/10/10 04:51:58;;;;;;;6.30;1.90;;;13.20;99.90;;;;;;5077278;28;20041;-70
2022/10/10 04:54:23;;;;;;;5.45;1.58;;;13.10;99.90;;;;;;5075703;28;20036;-70
2022/10/10 04:56:49;;;;;;;8.93;2.20;;;13.10;99.90;;;;;;5073983;28;20051;-70
2022/10/10 04:59:15;;;;;;;5.25;1.65;;;13.10;99.90;;;;;;5077048;28;20520;-71
2022/10/10 05:01:41;;;;;;;4.78;1.85;;;13.10;99.90;;;;;;5076863;28;20052;-70
2022/10/10 05:04:06;;;;;;;5.72;1.83;;;13.00;99.90;;;;;;5075971;28;20040;-71
2022/10/10 05:06:32;;;;;;;12.93;2.10;;;13.00;99.90;;;;;;5076738;28;20049;-70
2022/10/10 05:08:58;;;;;;;4.50;2.03;;;12.90;99.90;;;;;;5075775;28;20082;-71
2022/10/10 05:11:24;;;;;;;6.22;2.03;;;12.90;99.90;;;;;;5075915;28;20040;-71
2022/10/10 05:13:50;;;;;;;2.97;1.77;;;12.90;99.90;;;;;;5075823;28;20119;-71
2022/10/10 05:16:16;;;;;;;2.22;1.40;;;12.90;99.90;;;;;;5077183;28;20093;-71
2022/10/10 05:18:42;;;;;;;7.45;1.98;;;12.70;99.90;;;;;;5075689;28;20039;-71
2022/10/10 05:21:09;;;;;;;3.50;1.92;;;12.40;99.90;;;;;;5076997;28;20048;-71
2022/10/10 05:23:36;;;;;;;3.22;1.80;;;12.30;99.90;;;;;;5077033;28;20045;-71
2022/10/10 05:26:03;;;;;;;10.63;2.00;;;12.20;99.90;;;;;;5076785;28;20068;-70
2022/10/10 05:28:29;;;;;;;3.05;1.88;;;12.20;99.90;;;;;;5075394;28;20117;-70
2022/10/10 05:30:55;;;;;;;4.05;2.40;;;12.10;99.90;;;;;;5076731;28;20102;-69
2022/10/10 05:33:20;;;;;;;2.42;1.65;;;12.10;99.90;;;;;;5075811;28;20123;-70
2022/10/10 05:35:46;;;;;;;3.58;1.40;;;12.00;99.90;;;;;;5076754;28;20418;-71
2022/10/10 05:38:12;;;;;;;4.32;2.10;;;12.20;99.90;;;;;;5075345;28;20056;-71
2022/10/10 05:40:39;;;;;;;4.13;1.67;;;12.10;99.90;;;;;;5075257;28;20085;-71
2022/10/10 05:43:05;;;;;;;4.50;1.85;;;11.90;99.90;;;;;;5076630;28;20384;-70
2022/10/10 05:45:31;;;;;;;3.53;1.55;;;11.90;99.90;;;;;;5075771;28;20033;-70
2022/10/10 05:47:57;;;;;;;4.32;1.90;;;12.00;99.90;;;;;;5076041;28;20068;-70
2022/10/10 05:50:39;;;;;;;5.13;1.45;;;11.90;99.90;;;;;;5076512;28;20032;-69
2022/10/10 05:53:06;;;;;;;3.47;1.70;;;12.00;99.90;;;;;;5076538;28;20461;-69
2022/10/10 05:55:32;;;;;;;4.60;2.05;;;12.00;99.90;;;;;;5076433;28;20075;-70
2022/10/10 05:57:58;;;;;;;5.85;1.65;;;12.00;99.90;;;;;;5076257;28;20097;-69
2022/10/10 06:00:24;;;;;;;8.27;1.90;;;12.00;99.90;;;;;;5074831;28;20036;-68
2022/10/10 06:02:50;;;;;;;4.22;1.83;;;11.90;99.90;;;;;;5076180;28;20048;-70
2022/10/10 06:05:16;;;;;;;5.70;1.70;;;11.90;99.90;;;;;;5076068;28;20510;-68
2022/10/10 06:07:42;;;;;;;4.25;1.75;;;11.90;99.90;;;;;;5075965;28;20049;-68
2022/10/10 06:10:08;;;;;;;5.90;1.52;;;12.00;99.90;;;;;;5076034;28;20361;-68
2022/10/10 06:12:34;;;;;;;4.32;1.90;;;12.00;99.90;;;;;;5075850;28;20043;-68
2022/10/10 06:15:00;;;;;;;3.70;1.83;;;12.10;99.90;;;;;;5074688;28;20036;-71
2022/10/10 06:17:26;;;;;;;4.20;1.98;;;12.20;99.90;;;;;;5074545;28;20077;-68
2022/10/10 06:19:51;;;;;;;6.35;2.20;;;12.30;99.90;;;;;;5075214;28;20046;-71
2022/10/10 06:22:17;;;;;;;5.03;2.00;;;12.20;99.90;;;;;;5075863;28;20056;-70
2022/10/10 06:24:43;;;;;;;5.47;1.67;;;12.30;99.90;;;;;;5075897;28;20044;-71
2022/10/10 06:27:09;;;;;;;5.45;1.85;;;12.30;99.90;;;;;;5075673;28;20564;-70
2022/10/10 06:29:34;;;;;;;4.47;2.15;;;12.40;99.90;;;;;;5075768;28;20036;-68
2022/10/10 06:32:00;;;;;;;2.30;1.20;;;12.50;99.90;;;;;;5075666;28;20041;-71
2022/10/10 06:34:26;;;;;;;2.35;1.83;;;12.60;99.90;;;;;;5073602;28;20033;-71
2022/10/10 06:36:52;;;;;;;2.63;1.65;;;12.70;99.90;;;;;;5075488;28;20534;-67
2022/10/10 06:39:18;;;;;;;7.13;1.95;;;12.90;99.90;;;;;;5075042;28;20495;-68
2022/10/10 06:41:44;;;;;;;4.80;2.00;;;13.10;99.90;;;;;;5073946;28;20496;-71
2022/10/10 06:44:10;;;;;;;5.63;1.70;;;13.30;99.90;;;;;;5075551;28;20041;-68
2022/10/10 06:46:36;;;;;;;2.65;1.77;;;13.10;99.90;;;;;;5074077;28;20068;-68
2022/10/10 06:49:05;;;;;;;5.82;1.85;;;13.20;99.90;;;;;;5075318;28;20037;-68
2022/10/10 06:51:31;;;;;;;3.67;2.20;;;13.10;99.90;;;;;;5075327;28;20090;-68
2022/10/10 06:53:58;;;;;;;7.38;1.70;;;13.00;99.90;;;;;;5074008;28;20621;-71
2022/10/10 06:56:24;;;;;;;6.05;1.77;;;13.00;99.90;;;;;;5075132;28;20032;-68
2022/10/10 06:58:51;;;;;;;7.47;2.10;;;13.10;99.90;;;;;;5074812;28;20045;-68
2022/10/10 07:01:20;;;;;;;8.93;2.05;;;13.20;99.90;;;;;;5074857;28;20051;-69
2022/10/10 07:03:46;;;;;;;4.63;1.90;;;13.20;99.90;;;;;;5070237;28;20033;-70
2022/10/10 07:06:12;;;;;;;6.07;1.88;;;13.30;99.90;;;;;;5053843;28;20072;-68
2022/10/10 07:08:39;;;;;;;7.38;1.75;;;13.30;99.90;;;;;;5055032;28;20177;-68
2022/10/10 07:11:06;;;;;;;5.63;1.70;;;13.30;99.90;;;;;;5054859;28;20033;-68
2022/10/10 07:13:33;;;;;;;5.22;2.13;;;13.50;99.90;;;;;;5053583;28;20045;-69
2022/10/10 07:15:59;;;;;;;2.08;1.50;;;13.70;99.90;;;;;;5054969;28;20056;-68
2022/10/10 07:18:25;;;;;;;6.75;1.52;;;13.80;99.90;;;;;;5054813;28;20412;-70
2022/10/10 07:20:55;;;;;;;5.65;1.80;;;13.90;99.90;;;;;;5054648;28;20039;-71
2022/10/10 07:23:21;;;;;;;3.90;2.22;;;14.10;99.90;;;;;;5054699;28;20135;-68
2022/10/10 07:25:47;;;;;;;3.72;1.90;;;14.50;99.90;;;;;;5054494;28;20129;-68
2022/10/10 07:28:13;;;;;;;4.22;1.73;;;14.90;99.90;;;;;;5054641;28;20488;-71
2022/10/10 07:30:42;;;;;;;7.32;1.95;;;15.50;99.90;;;;;;5054603;28;20490;-68
2022/10/10 07:33:08;;;;;;;4.13;1.70;;;16.00;99.90;;;;;;5054675;28;20052;-69
2022/10/10 07:35:34;;;;;;;9.57;1.65;;;16.10;99.90;;;;;;5054529;28;20056;-69
2022/10/10 07:37:59;;;;;;;6.03;2.20;;;16.50;99.90;;;;;;5054430;28;20044;-72
2022/10/10 07:40:25;;;;;;;6.00;1.50;;;16.70;99.90;;;;;;5054401;28;20042;-71
2022/10/10 07:42:51;;;;;;;8.35;1.90;;;16.90;99.90;;;;;;5054384;28;20472;-72
2022/10/10 07:45:17;;;;;;;7.97;1.33;;;17.00;99.90;;;;;;5053055;28;20029;-69
2022/10/10 07:47:43;;;;;;;4.93;1.63;;;17.00;99.90;;;;;;5054313;28;20045;-72
2022/10/10 07:50:10;;;;;;;6.70;1.55;;;17.10;99.90;;;;;;5054245;28;20040;-69
2022/10/10 07:52:37;;;;;;;8.00;1.92;;;17.30;99.90;;;;;;5054181;28;20061;-69
2022/10/10 07:55:03;;;;;;;2.92;1.33;;;17.50;99.90;;;;;;5052892;28;20040;-69
2022/10/10 07:57:33;;;;;;;4.72;1.60;;;17.70;99.90;;;;;;5054020;28;20041;-69
2022/10/10 08:00:04;;;;;;;6.88;1.80;;;17.60;99.90;;;;;;5054146;28;20157;-72
2022/10/10 08:02:30;;;;;;;5.97;2.00;;;17.60;99.90;;;;;;5052846;28;20045;-72
2022/10/10 08:04:56;;;;;;;6.28;2.08;;;17.50;99.90;;;;;;5054180;28;20040;-68
2022/10/10 08:07:22;;;;;;;10.60;1.90;;;17.50;99.90;;;;;;5055178;28;20124;-71
2022/10/10 08:09:47;;;;;;;3.05;1.80;;;17.70;99.90;;;;;;5073244;28;20051;-69
2022/10/10 08:12:13;;;;;;;4.35;1.83;;;17.80;99.90;;;;;;5073008;28;20052;-71
2022/10/10 08:14:39;;;;;;;7.38;1.92;;;17.90;99.90;;;;;;5072642;28;20036;-69
2022/10/10 08:17:05;;;;;;;4.07;1.80;;;18.10;99.90;;;;;;5073945;28;20392;-69
2022/10/10 08:19:31;;;;;;;8.45;2.30;;;;;;;;;;5073932;28;20113;-73
2022/10/10 08:21:56;;;;;;;4.43;1.98;;;18.60;99.90;;;;;;5072694;28;20048;-69
2022/10/10 08:24:22;;;;;;;2.47;1.63;;;18.60;99.90;;;;;;5073936;28;20396;-69
2022/10/10 08:26:49;;;;;;;8.25;1.92;;;18.40;99.90;;;;;;5073873;28;20396;-71
2022/10/10 08:29:16;;;;;;;4.15;2.30;;;18.40;99.90;;;;;;5073790;28;20044;-71
2022/10/10 08:31:42;;;;;;;6.38;1.50;;;18.60;99.90;;;;;;5073961;28;20068;-72
2022/10/10 08:34:10;;;;;;;4.07;1.48;;;18.70;99.90;;;;;;5072889;28;20044;-69
2022/10/10 08:36:36;;;;;;;3.08;1.80;;;18.90;99.90;;;;;;5073674;28;20044;-68
2022/10/10 08:39:02;;;;;;;5.25;1.80;;;19.20;99.90;;;;;;5073838;28;20090;-71
2022/10/10 08:41:45;;;;;;;3.85;1.48;;;19.40;99.90;;;;;;5073684;28;20079;-69
2022/10/10 08:44:36;;;;;;;5.50;1.70;;;19.30;99.90;;;;;;5073677;28;20098;-69
2022/10/10 08:47:24;;;;;;;3.20;1.48;;;19.70;99.90;;;;;;5072430;28;20045;-72
2022/10/10 08:50:02;;;;;;;5.40;1.80;;;19.90;99.90;;;;;;5073223;28;20114;-71
2022/10/10 08:52:27;;;;;;;5.55;1.90;;;19.80;99.90;;;;;;5072322;28;20045;-69
2022/10/10 08:54:54;;;;;;;3.35;1.45;;;19.60;99.90;;;;;;5072283;28;20036;-71
2022/10/10 08:57:48;;;;;;;7.20;2.10;;;19.70;99.90;;;;;;5073442;28;20044;-72
2022/10/10 09:00:28;;;;;;;3.15;1.70;;;19.60;99.90;;;;;;5073612;28;20040;-70
2022/10/10 09:02:59;;;;;;;6.28;1.77;;;19.30;99.90;;;;;;5072335;28;20489;-72
2022/10/10 09:05:34;;;;;;;3.67;2.20;;;19.30;99.90;;;;;;5072180;28;20028;-72
2022/10/10 09:08:28;;;;;;;7.60;2.22;;;19.30;99.90;;;;;;5073538;28;20043;-72
2022/10/10 09:11:04;;;;;;;4.82;2.42;;;19.50;99.90;;;;;;5071494;28;20101;-73
2022/10/10 09:13:42;;;;;;;6.93;2.42;;;19.30;99.90;;;;;;5073504;28;20119;-72
2022/10/10 09:16:53;;;;;;;8.52;3.53;;;19.30;99.90;;;;;;5073305;28;20044;-72
2022/10/10 09:19:23;;;;;;;4.80;3.30;;;19.90;99.90;;;;;;5069963;28;20040;-69
2022/10/10 09:21:55;;;;;;;7.90;3.65;;;20.00;99.90;;;;;;5069205;28;20053;-70
2022/10/10 09:24:37;;;;;;;10.10;3.55;;;19.90;99.90;;;;;;5073362;28;20040;-69
2022/10/10 09:27:08;;;;;;;5.15;3.00;;;19.40;99.90;;;;;;5076028;28;20440;-69
2022/10/10 09:29:55;;;;;;;6.18;3.35;;;19.70;99.90;;;;;;5074869;28;20063;-72
2022/10/10 09:32:47;;;;;;;7.15;3.55;;;19.50;99.90;;;;;;5074654;28;20055;-69
2022/10/10 09:35:29;;;;;;;9.75;3.63;;;19.70;99.90;;;;;;5072773;28;20036;-71
2022/10/10 09:38:30;;;;;;;9.20;3.53;;;19.70;99.90;;;;;;5074351;28;20068;-69
2022/10/10 09:41:01;;;;;;;7.10;3.70;;;19.80;99.90;;;;;;5072727;28;20036;-70
2022/10/10 09:43:33;;;;;;;7.78;4.63;;;20.00;99.90;;;;;;5074457;28;20044;-69
2022/10/10 09:45:59;;;;;;;7.28;4.15;;;20.10;99.90;;;;;;5075033;28;20044;-69
2022/10/10 09:48:35;;;;;;;11.15;4.00;;;20.40;99.90;;;;;;5075070;28;20094;-68
2022/10/10 09:51:04;;;;;;;7.00;3.90;;;20.90;99.90;;;;;;5074137;28;20043;-69
2022/10/10 09:53:30;;;;;;;8.45;4.13;;;20.80;99.90;;;;;;5075957;28;20047;-68
2022/10/10 09:55:58;;;;;;;4.78;3.33;;;21.00;99.90;;;;;;5074163;28;20025;-70
2022/10/10 09:58:41;;;;;;;7.72;3.13;;;21.00;99.90;;;;;;5073111;28;20469;-70
2022/10/10 10:01:25;;;;;;;5.63;3.92;;;21.10;99.90;;;;;;5073933;28;20118;-70
2022/10/10 10:04:17;;;;;;;6.22;3.03;;;21.00;99.90;;;;;;5073927;28;20040;-69
2022/10/10 10:06:46;;;;;;;4.00;3.00;;;21.30;99.90;;;;;;5073909;28;20037;-74
2022/10/10 10:09:17;;;;;;;7.03;3.40;;;21.40;99.90;;;;;;5073656;28;20043;-68
2022/10/10 10:11:45;;;;;;;5.43;3.58;;;21.30;99.90;;;;;;5071206;28;20067;-72
2022/10/10 10:14:24;;;;;;;6.13;2.85;;;21.20;99.90;;;;;;5072316;28;20358;-70
2022/10/10 10:16:51;;;;;;;9.90;3.42;;;21.40;99.90;;;;;;5073440;28;20040;-69
2022/10/10 10:19:44;;;;;;;5.45;3.35;;;21.40;99.90;;;;;;5073535;28;20052;-69
2022/10/10 10:22:36;;;;;;;7.93;3.35;;;21.50;99.90;;;;;;5071010;28;20098;-69
2022/10/10 10:25:28;;;;;;;6.93;3.15;;;21.30;99.90;;;;;;5073366;28;20556;-70
2022/10/10 10:28:13;;;;;;;6.80;2.75;;;;;;;;;;5073101;28;20037;-69
2022/10/10 10:30:40;;;;;;;10.95;3.38;;;21.20;99.90;;;;;;5073408;28;20105;-70
2022/10/10 10:33:26;;;;;;;6.80;3.60;;;21.10;99.90;;;;;;5073607;28;20048;-68
2022/10/10 10:36:04;;;;;;;4.75;3.38;;;21.30;99.90;;;;;;5074835;28;20040;-69
2022/10/10 10:38:59;;;;;;;5.75;3.53;;;21.10;99.90;;;;;;5074285;28;20488;-68
2022/10/10 10:41:49;;;;;;;6.18;3.05;;;21.20;99.90;;;;;;5073154;28;20047;-72
2022/10/10 10:44:17;;;;;;;7.70;4.05;;;21.20;99.90;;;;;;5072954;28;20051;-73
2022/10/10 10:47:07;;;;;;;6.30;3.75;;;21.00;99.90;;;;;;5073292;28;20149;-69
2022/10/10 10:49:51;;;;;;;7.88;3.30;;;21.20;99.90;;;;;;5074590;28;20052;-69
2022/10/10 10:52:42;;;;;;;7.95;3.75;;;21.70;99.90;;;;;;5071686;28;20037;-71
2022/10/10 10:55:34;;;;;;;4.40;2.58;;;21.40;99.90;;;;;;5072824;28;20052;-72
2022/10/10 10:58:10;;;;;;;6.97;2.25;;;21.10;99.90;;;;;;5074117;28;20534;-69
2022/10/10 11:01:11;;;;;;;5.43;2.15;;;20.80;99.90;;;;;;5072837;28;20392;-73
2022/10/10 11:03:36;;;;;;;;;;;21.00;99.90;;;;;;5056745;28;20047;-69
2022/10/10 11:06:43;;;;;;;4.53;1.83;;;20.90;99.90;;;;;;5072578;28;19908;-73
2022/10/10 11:09:19;;;;;;;6.85;1.95;;;20.90;99.90;;;;;;5051912;28;20498;-70
2022/10/10 11:12:09;;;;;;;4.68;1.75;;;21.00;99.90;;;;;;5053015;28;20040;-72
2022/10/10 11:14:38;;;;;;;;;;;21.00;99.90;;;;;;5054808;28;20040;-69
2022/10/10 11:17:50;;;;;;;10.00;2.45;;;20.80;99.90;;;;;;5054255;28;19913;-70
2022/10/10 11:20:27;;;;;;;4.05;2.05;;;20.50;99.90;;;;;;5029852;28;20115;-69
2022/10/10 11:23:39;;;;;;;3.67;1.75;;;20.60;99.90;;;;;;5029610;28;20180;-69
2022/10/10 11:26:17;;;;;;;4.05;1.70;;;20.80;99.90;;;;;;5027170;28;20033;-70
2022/10/10 11:29:11;;;;;;;6.97;2.15;;;21.00;99.90;;;;;;5052139;28;20116;-69
2022/10/10 11:31:53;;;;;;;4.32;1.83;;;20.90;99.90;;;;;;5048078;28;20409;-69
2022/10/10 11:34:30;;;;;;;5.28;2.47;;;20.90;99.90;;;;;;5052485;28;20051;-68
2022/10/10 11:37:03;;;;;;;5.00;2.00;;;20.70;99.90;;;;;;5050681;28;20048;-69
2022/10/10 11:39:50;;;;;;;3.65;1.70;;;20.70;99.90;;;;;;5052978;28;20028;-69
2022/10/10 11:42:45;;;;;;;3.92;1.83;;;20.40;99.90;;;;;;5053962;28;20057;-69
2022/10/10 11:45:15;;;;;;;5.38;2.05;;;20.20;99.90;;;;;;5053638;28;20048;-69
2022/10/10 11:48:00;;;;;;;6.93;2.38;;;20.10;99.90;;;;;;5051128;28;20040;-69
2022/10/10 11:50:29;;;;;;;7.40;2.28;;;19.90;99.90;;;;;;5052123;28;20504;-69
2022/10/10 11:53:01;;;;;;;3.42;1.83;;;19.90;99.90;;;;;;5051734;28;20044;-72
2022/10/10 11:55:42;;;;;;;4.55;2.10;;;19.90;99.90;;;;;;5052829;28;20071;-69
2022/10/10 11:58:07;;;;;;;;;;;19.90;99.90;;;;;;5052915;28;20041;-69
2022/10/10 12:00:38;;;;;;;8.73;2.35;;;19.90;99.90;;;;;;5051985;28;19908;-73
2022/10/10 12:03:06;;;;;;;;;;;19.90;99.90;;;;;;5051262;28;20049;-73
2022/10/10 12:05:37;;;;;;;6.50;1.88;;;20.30;99.90;;;;;;5053003;28;19916;-68
2022/10/10 12:08:24;;;;;;;4.82;2.08;;;20.60;99.90;;;;;;5051620;28;20045;-73
2022/10/10 12:11:21;;;;;;;4.93;3.00;;;20.90;99.90;;;;;;5051439;28;20084;-69
2022/10/10 12:13:55;;;;;;;5.88;2.60;;;20.70;99.90;;;;;;5049912;28;20041;-69
2022/10/10 12:16:25;;;;;;;7.10;2.53;;;20.50;99.90;;;;;;5051637;28;20508;-72
2022/10/10 12:19:04;;;;;;;8.52;2.60;;;20.50;99.90;;;;;;5064790;28;20044;-69
2022/10/10 12:21:31;;;;;;;5.68;2.20;;;20.70;99.90;;;;;;5070651;28;20056;-69
2022/10/10 12:24:08;;;;;;;4.22;2.55;;;20.60;99.90;;;;;;5071631;28;20540;-71
2022/10/10 12:26:53;;;;;;;6.03;1.90;;;20.50;99.90;;;;;;5072501;28;20048;-72
2022/10/10 12:29:47;;;;;;;5.20;2.25;;;20.70;99.90;;;;;;5073641;28;20063;-69
2022/10/10 12:32:13;;;;;;;5.90;2.50;;;20.80;99.90;;;;;;5071410;28;20119;-72
2022/10/10 12:34:46;;;;;;;5.57;2.40;;;20.50;99.90;;;;;;5070888;28;20071;-69
2022/10/10 12:37:21;;;;;;;3.60;2.22;;;20.30;99.90;;;;;;5071241;28;20399;-70
2022/10/10 12:40:04;;;;;;;3.00;2.13;;;20.30;99.90;;;;;;5071595;28;20032;-69
2022/10/10 12:42:39;;;;;;;7.82;3.35;;;20.40;99.90;;;;;;5071339;28;20056;-69
2022/10/10 12:45:29;;;;;;;4.72;1.85;;;20.30;99.90;;;;;;5072307;28;20036;-69
2022/10/10 12:48:00;;;;;;;7.78;2.25;;;20.10;99.90;;;;;;5073709;28;20036;-73
2022/10/10 12:50:34;;;;;;;8.50;2.80;;;20.10;99.90;;;;;;5073574;28;20119;-68
2022/10/10 12:53:11;;;;;;;5.00;2.15;;;20.10;99.90;;;;;;5073841;28;20553;-68
2022/10/10 12:55:56;;;;;;;4.95;2.50;;;20.00;99.90;;;;;;5073720;28;20051;-68
2022/10/10 12:58:32;;;;;;;3.88;2.28;;;20.00;99.90;;;;;;5075886;28;20037;-69
2022/10/10 13:01:24;;;;;;;4.82;2.00;;;20.00;99.90;;;;;;5077413;28;20040;-72
2022/10/10 13:03:53;;;;;;;3.40;1.90;;;20.00;99.90;;;;;;5076360;28;20103;-72
2022/10/10 13:06:34;;;;;;;5.50;1.92;;;19.90;99.90;;;;;;5077546;28;20045;-68
2022/10/10 13:09:26;;;;;;;4.05;2.10;;;20.00;99.90;;;;;;5076349;28;20049;-72
2022/10/10 13:11:58;;;;;;;5.63;1.80;;;20.10;99.90;;;;;;5075965;28;20086;-72